Kotlas, Russia
Current Conditions -  °F | °C
As of 3:30 AM on Sunday 21 Dec 2014 (Local Time) from UUYY Reporting Station
Snow Showers Snow Showers  
Wind Chill: 23°   Ceiling: 2600
Heat Index: 28°   Visibility: 0.62mi
Dew Point: 27°   Wind: 4mph
Humidity: 93%   Direction: NA
Pressure: 29.18"   Gusts: NA
Location:  61.26°N, 46.66°E
Report Text: UUYY 210030Z VRB02MPS 1000 R19/P1500U SHSN SCT006 BKN026CB OVC066 M02/M03 Q0988 TEMPO 0500 +SHSN 19490535 RMK QFE733/0977
Loading
Personal Weather Stations






























Interactive Weather Map New forecast layout! Learn more

10-Day Weather Forecast

Advertisements
Track Severe Weather on mobile